createdAt,value
2022-08-08T00:00:53.941Z,18.40
2022-08-08T00:03:00.534Z,18.50
2022-08-08T00:06:02.902Z,18.50
2022-08-08T00:08:40.365Z,18.40
2022-08-08T00:11:18.618Z,18.40
2022-08-08T00:14:17.720Z,18.30
2022-08-08T00:16:48.426Z,18.20
2022-08-08T00:19:21.707Z,18.20
2022-08-08T00:21:57.340Z,18.30
2022-08-08T00:24:32.201Z,18.30
2022-08-08T00:27:06.312Z,17.80
2022-08-08T00:29:45.115Z,17.60
2022-08-08T00:32:34.160Z,17.40
2022-08-08T00:35:23.208Z,17.10
2022-08-08T00:38:16.553Z,17.10
2022-08-08T00:41:15.862Z,17.20
2022-08-08T00:44:32.251Z,17.30
2022-08-08T00:48:05.559Z,17.50
2022-08-08T00:51:15.170Z,17.50
2022-08-08T00:54:15.931Z,17.00
2022-08-08T00:57:19.890Z,17.00
2022-08-08T01:00:10.866Z,17.10
2022-08-08T01:04:00.714Z,17.10
2022-08-08T01:06:47.558Z,17.20
2022-08-08T01:09:41.195Z,17.20
2022-08-08T01:12:43.150Z,17.30
2022-08-08T01:16:02.888Z,17.30
2022-08-08T01:19:02.604Z,17.30
2022-08-08T01:22:23.655Z,17.30
2022-08-08T01:25:40.876Z,17.30
2022-08-08T01:28:27.961Z,17.20
2022-08-08T01:32:13.342Z,17.30
2022-08-08T01:35:01.809Z,17.20
2022-08-08T01:38:08.759Z,17.20
2022-08-08T01:40:48.968Z,17.20
2022-08-08T01:43:38.623Z,17.10
2022-08-08T01:46:26.981Z,17.10
2022-08-08T01:49:10.764Z,17.00
2022-08-08T01:52:41.929Z,17.00
2022-08-08T01:55:27.143Z,16.90
2022-08-08T01:58:11.065Z,17.00
2022-08-08T02:00:48.761Z,17.10
2022-08-08T02:03:57.140Z,17.20
2022-08-08T02:06:36.938Z,17.20
2022-08-08T02:10:02.719Z,17.30
2022-08-08T02:12:28.672Z,17.40
2022-08-08T02:15:04.917Z,17.50
2022-08-08T02:17:50.366Z,17.40
2022-08-08T02:21:00.850Z,17.30
2022-08-08T02:23:24.089Z,17.30
2022-08-08T02:26:10.156Z,17.20
2022-08-08T02:28:51.722Z,17.20
2022-08-08T02:31:54.084Z,17.30
2022-08-08T02:35:08.184Z,17.50
2022-08-08T02:37:52.576Z,17.50
2022-08-08T02:40:37.947Z,17.40
2022-08-08T02:44:37.275Z,17.20
2022-08-08T02:46:47.373Z,17.30
2022-08-08T02:49:52.035Z,17.20
2022-08-08T02:52:38.763Z,17.20
2022-08-08T02:55:37.505Z,17.20
2022-08-08T02:58:47.631Z,17.10
2022-08-08T03:02:00.236Z,16.80
2022-08-08T03:05:09.369Z,16.80
2022-08-08T03:08:17.138Z,16.40
2022-08-08T03:11:47.643Z,16.40
2022-08-08T03:15:56.774Z,16.00
2022-08-08T03:17:40.687Z,16.10
2022-08-08T03:20:10.469Z,16.10
2022-08-08T03:22:46.096Z,15.90
2022-08-08T03:25:18.750Z,15.60
2022-08-08T03:27:56.527Z,15.50
2022-08-08T03:30:25.335Z,15.30
2022-08-08T03:33:53.937Z,15.10
2022-08-08T03:35:59.597Z,15.40
2022-08-08T03:38:57.288Z,15.80
2022-08-08T03:42:12.520Z,16.10
2022-08-08T03:44:06.045Z,16.20
2022-08-08T03:46:44.550Z,16.30
2022-08-08T03:49:58.266Z,16.30
2022-08-08T03:52:13.165Z,16.50
2022-08-08T03:55:01.463Z,16.40
2022-08-08T03:58:32.140Z,16.30
2022-08-08T04:00:21.480Z,16.30
2022-08-08T04:02:57.303Z,16.30
2022-08-08T04:05:28.716Z,16.30
2022-08-08T04:07:58.016Z,16.30
2022-08-08T04:10:31.645Z,16.40
2022-08-08T04:13:00.710Z,16.30
2022-08-08T04:15:38.585Z,16.00
2022-08-08T04:18:16.420Z,15.90
2022-08-08T04:20:45.024Z,15.80
2022-08-08T04:23:13.407Z,15.80
2022-08-08T04:25:44.915Z,15.80
2022-08-08T04:28:36.780Z,15.70
2022-08-08T04:31:06.053Z,15.50
2022-08-08T04:33:41.512Z,15.60
2022-08-08T04:36:10.012Z,15.50
2022-08-08T04:38:38.487Z,15.40
2022-08-08T04:41:18.017Z,15.60
2022-08-08T04:43:54.276Z,15.40
2022-08-08T04:46:25.235Z,15.50
2022-08-08T04:48:58.710Z,15.70
2022-08-08T04:51:48.463Z,15.90
2022-08-08T04:54:39.282Z,16.10
2022-08-08T04:57:03.299Z,16.20
2022-08-08T04:59:31.861Z,16.40
2022-08-08T05:02:10.286Z,16.40
2022-08-08T05:04:44.625Z,16.50
2022-08-08T05:07:14.873Z,16.50
2022-08-08T05:09:43.249Z,16.50
2022-08-08T05:12:20.427Z,16.50
2022-08-08T05:14:49.067Z,16.50
2022-08-08T05:17:20.327Z,16.40
2022-08-08T05:20:09.447Z,16.60
2022-08-08T05:22:37.191Z,16.70
2022-08-08T05:25:05.726Z,16.60
2022-08-08T05:27:41.142Z,16.80
2022-08-08T05:30:11.826Z,16.80
2022-08-08T05:32:40.923Z,16.90
2022-08-08T05:35:13.618Z,16.90
2022-08-08T05:37:53.721Z,17.00
2022-08-08T05:40:27.890Z,17.10
2022-08-08T05:43:03.735Z,17.20
2022-08-08T05:45:55.135Z,17.20
2022-08-08T05:48:32.959Z,17.20
2022-08-08T05:51:13.513Z,17.20
2022-08-08T05:54:24.378Z,17.20
2022-08-08T05:56:38.525Z,17.40
2022-08-08T06:00:00.905Z,17.40
2022-08-08T06:02:32.840Z,17.40
2022-08-08T06:05:06.807Z,17.70
2022-08-08T06:07:53.300Z,17.90
2022-08-08T06:10:34.672Z,17.90
2022-08-08T06:13:02.976Z,18.00
2022-08-08T06:15:51.228Z,18.10
2022-08-08T06:18:23.676Z,18.10
2022-08-08T06:20:56.319Z,18.40
2022-08-08T06:23:29.162Z,18.70
2022-08-08T06:26:38.636Z,19.00
2022-08-08T06:29:10.699Z,19.00
2022-08-08T06:32:10.150Z,19.10
2022-08-08T06:34:41.012Z,19.10
2022-08-08T06:37:24.223Z,19.10
2022-08-08T06:39:57.467Z,19.30
2022-08-08T06:42:32.475Z,19.60
2022-08-08T06:45:02.340Z,19.50
2022-08-08T06:47:52.732Z,19.70
2022-08-08T06:50:32.404Z,20.00
2022-08-08T06:53:09.920Z,20.20
2022-08-08T06:55:43.190Z,20.40
2022-08-08T06:58:11.240Z,20.30
2022-08-08T07:00:41.107Z,20.40
2022-08-08T07:03:51.684Z,20.70
2022-08-08T07:06:05.509Z,20.70
2022-08-08T07:08:39.294Z,21.20
2022-08-08T07:11:21.875Z,21.40
2022-08-08T07:14:01.142Z,21.60
2022-08-08T07:16:53.807Z,21.50
2022-08-08T07:19:34.150Z,21.80
2022-08-08T07:22:12.106Z,21.90
2022-08-08T07:24:53.223Z,22.20
2022-08-08T07:27:35.280Z,22.50
2022-08-08T07:30:16.120Z,22.60
2022-08-08T07:32:49.575Z,22.80
2022-08-08T07:35:19.952Z,22.70
2022-08-08T07:38:04.606Z,23.00
2022-08-08T07:40:40.167Z,23.40
2022-08-08T07:43:09.176Z,23.80
2022-08-08T07:46:05.034Z,24.10
2022-08-08T07:48:30.027Z,24.30
2022-08-08T07:51:02.538Z,24.50
2022-08-08T07:54:01.085Z,24.30
2022-08-08T07:56:35.784Z,24.10
2022-08-08T07:59:14.375Z,24.30
2022-08-08T08:02:36.763Z,24.70
2022-08-08T08:04:49.394Z,24.90
2022-08-08T08:07:26.221Z,25.20
2022-08-08T08:10:03.435Z,24.90
2022-08-08T08:12:41.350Z,24.90
2022-08-08T08:15:16.273Z,24.60
2022-08-08T08:17:48.987Z,24.70
2022-08-08T08:20:29.824Z,25.00
2022-08-08T08:22:59.598Z,25.00
2022-08-08T08:25:42.841Z,25.20
2022-08-08T08:28:16.913Z,25.00
2022-08-08T08:30:49.642Z,25.00
2022-08-08T08:33:17.931Z,25.30
2022-08-08T08:36:18.497Z,25.50
2022-08-08T08:38:37.740Z,25.70
2022-08-08T08:41:20.241Z,26.10
2022-08-08T08:43:52.276Z,25.90
2022-08-08T08:46:41.372Z,25.90
2022-08-08T08:49:16.433Z,26.20
2022-08-08T08:51:51.421Z,26.60
2022-08-08T08:54:25.439Z,26.70
2022-08-08T08:56:54.672Z,26.60
2022-08-08T08:59:24.022Z,26.40
2022-08-08T09:02:21.004Z,26.40
2022-08-08T09:04:52.663Z,26.50
2022-08-08T09:07:39.215Z,26.80
2022-08-08T09:10:17.446Z,27.00
2022-08-08T09:12:47.412Z,27.00
2022-08-08T09:15:37.099Z,26.70
2022-08-08T09:18:04.679Z,26.60
2022-08-08T09:21:59.112Z,26.50
2022-08-08T09:23:25.342Z,26.30
2022-08-08T09:26:03.216Z,26.50
2022-08-08T09:28:37.634Z,26.80
2022-08-08T09:31:13.144Z,27.00
2022-08-08T09:34:16.036Z,27.20
2022-08-08T09:36:35.901Z,27.80
2022-08-08T09:39:10.148Z,28.10
2022-08-08T09:41:54.691Z,28.20
2022-08-08T09:44:48.333Z,28.40
2022-08-08T09:48:02.406Z,28.30
2022-08-08T09:50:13.706Z,28.70
2022-08-08T09:52:55.853Z,29.00
2022-08-08T09:55:51.624Z,29.30
2022-08-08T09:58:27.795Z,29.30
2022-08-08T10:01:14.361Z,29.50
2022-08-08T10:03:56.311Z,29.40
2022-08-08T10:06:29.229Z,29.50
2022-08-08T10:08:57.696Z,29.60
2022-08-08T10:12:26.039Z,29.20
2022-08-08T10:14:28.666Z,29.10
2022-08-08T10:17:38.496Z,28.80
2022-08-08T10:20:00.098Z,28.60
2022-08-08T10:22:29.956Z,28.60
2022-08-08T10:25:04.922Z,28.00
2022-08-08T10:27:42.738Z,27.80
2022-08-08T10:30:16.679Z,27.60
2022-08-08T10:33:01.548Z,28.00
2022-08-08T10:36:08.010Z,28.30
2022-08-08T10:38:20.731Z,28.80
2022-08-08T10:40:53.716Z,29.20
2022-08-08T10:43:23.105Z,29.70
2022-08-08T10:45:57.203Z,29.70
2022-08-08T10:48:38.919Z,29.40
2022-08-08T10:51:21.620Z,29.10
2022-08-08T10:53:57.751Z,29.20
2022-08-08T10:56:32.101Z,29.60
2022-08-08T10:59:01.431Z,29.20
2022-08-08T11:01:33.439Z,28.90
2022-08-08T11:04:04.537Z,28.90
2022-08-08T11:06:34.963Z,28.80
2022-08-08T11:09:15.262Z,28.90
2022-08-08T11:12:05.758Z,28.90
2022-08-08T11:14:48.392Z,29.20
2022-08-08T11:17:59.660Z,29.40
2022-08-08T11:20:12.678Z,29.50
2022-08-08T11:22:44.715Z,29.90
2022-08-08T11:25:13.808Z,29.80
2022-08-08T11:27:44.623Z,30.20
2022-08-08T11:30:24.581Z,30.40
2022-08-08T11:32:58.842Z,30.10
2022-08-08T11:35:38.418Z,29.70
2022-08-08T11:38:39.757Z,29.60
2022-08-08T11:40:58.632Z,29.90
2022-08-08T11:43:38.556Z,30.10
2022-08-08T11:46:11.892Z,29.80
2022-08-08T11:48:46.854Z,30.00
2022-08-08T11:51:38.226Z,29.90
2022-08-08T11:54:26.760Z,30.30
2022-08-08T11:56:55.933Z,30.90
2022-08-08T11:59:57.926Z,31.30
2022-08-08T12:02:32.235Z,31.40
2022-08-08T12:05:13.504Z,31.40
2022-08-08T12:07:46.655Z,31.30
2022-08-08T12:10:15.590Z,30.70
2022-08-08T12:12:48.071Z,30.00
2022-08-08T12:15:28.378Z,29.50
2022-08-08T12:17:56.169Z,29.80
2022-08-08T12:20:26.199Z,29.90
2022-08-08T12:22:56.946Z,29.80
2022-08-08T12:25:30.093Z,29.50
2022-08-08T12:28:15.495Z,29.30
2022-08-08T12:30:49.953Z,29.60
2022-08-08T12:33:19.463Z,30.00
2022-08-08T12:35:52.527Z,30.10
2022-08-08T12:38:31.323Z,30.60
2022-08-08T12:41:05.792Z,30.60
2022-08-08T12:43:59.536Z,30.50
2022-08-08T12:46:28.755Z,30.60
2022-08-08T12:51:58.444Z,29.70
2022-08-08T12:54:33.389Z,29.20
2022-08-08T12:57:15.187Z,29.50
2022-08-08T13:00:06.223Z,29.90
2022-08-08T13:02:51.832Z,30.30
2022-08-08T13:05:26.680Z,30.50
2022-08-08T13:08:21.788Z,30.50
2022-08-08T13:10:56.312Z,29.90
2022-08-08T13:13:34.881Z,30.00
2022-08-08T13:16:18.557Z,29.80
2022-08-08T13:18:56.327Z,29.70
2022-08-08T13:21:49.162Z,29.70
2022-08-08T13:24:18.668Z,29.90
2022-08-08T13:27:11.823Z,30.00
2022-08-08T13:29:50.743Z,29.60
2022-08-08T13:32:20.744Z,29.90
2022-08-08T13:34:52.621Z,30.20
2022-08-08T13:37:28.319Z,30.40
2022-08-08T13:40:17.961Z,30.50
2022-08-08T13:42:55.858Z,30.70
2022-08-08T13:45:24.940Z,30.80
2022-08-08T13:47:58.173Z,30.80
2022-08-08T13:50:36.644Z,31.00
2022-08-08T13:53:24.356Z,31.00
2022-08-08T13:56:00.942Z,31.60
2022-08-08T13:58:29.414Z,31.90
2022-08-08T14:00:57.671Z,32.00
2022-08-08T14:03:53.691Z,31.40
2022-08-08T14:06:20.586Z,31.40
2022-08-08T14:09:24.443Z,30.80
2022-08-08T14:11:51.109Z,30.30
2022-08-08T14:14:21.260Z,30.40
2022-08-08T14:17:00.490Z,30.70
2022-08-08T14:19:57.403Z,30.90
2022-08-08T14:22:24.251Z,30.70
2022-08-08T14:24:55.596Z,30.40
2022-08-08T14:27:28.851Z,30.00
2022-08-08T14:30:02.697Z,29.90
2022-08-08T14:32:32.020Z,30.10
2022-08-08T14:35:05.415Z,30.10
2022-08-08T14:37:42.720Z,30.10
2022-08-08T14:40:12.728Z,30.40
2022-08-08T14:42:55.192Z,30.70
2022-08-08T14:45:33.139Z,30.60
2022-08-08T14:48:16.478Z,30.70
2022-08-08T14:51:06.524Z,30.90
2022-08-08T14:53:55.716Z,30.50
2022-08-08T14:56:25.158Z,30.40
2022-08-08T14:58:55.036Z,30.50
2022-08-08T15:01:28.066Z,30.70
2022-08-08T15:04:10.320Z,30.40
2022-08-08T15:06:39.137Z,30.30
2022-08-08T15:09:10.164Z,30.20
2022-08-08T15:11:43.309Z,30.00
2022-08-08T15:14:15.803Z,29.90
2022-08-08T15:16:44.600Z,29.80
2022-08-08T15:19:14.977Z,29.90
2022-08-08T15:21:44.661Z,29.80
2022-08-08T15:24:14.452Z,29.90
2022-08-08T15:26:52.219Z,29.90
2022-08-08T15:29:24.581Z,29.80
2022-08-08T15:32:03.836Z,30.00
2022-08-08T15:34:41.499Z,30.00
2022-08-08T15:37:09.721Z,30.10
2022-08-08T15:39:39.694Z,30.20
2022-08-08T15:42:13.482Z,29.90
2022-08-08T15:44:47.196Z,29.70
2022-08-08T15:47:19.081Z,29.90
2022-08-08T15:49:48.400Z,29.70
2022-08-08T15:52:18.008Z,29.40
2022-08-08T15:54:51.725Z,29.70
2022-08-08T15:57:20.914Z,30.00
2022-08-08T16:00:06.877Z,30.50
2022-08-08T16:02:44.463Z,30.60
2022-08-08T16:05:19.023Z,30.40
2022-08-08T16:07:52.005Z,30.60
2022-08-08T16:13:11.362Z,30.60
2022-08-08T16:13:28.498Z,30.20
2022-08-08T16:16:09.692Z,29.70
2022-08-08T16:18:41.359Z,29.70
2022-08-08T16:21:26.157Z,29.70
2022-08-08T16:23:55.611Z,29.20
2022-08-08T16:26:33.758Z,29.00
2022-08-08T16:30:13.734Z,28.70
2022-08-08T16:32:28.084Z,28.40
2022-08-08T16:35:00.299Z,28.60
2022-08-08T16:37:28.171Z,28.50
2022-08-08T16:40:00.582Z,28.60
2022-08-08T16:42:31.048Z,28.40
2022-08-08T16:44:59.711Z,28.30
2022-08-08T16:47:40.548Z,28.40
2022-08-08T16:50:15.133Z,28.30
2022-08-08T16:55:04.700Z,28.50
2022-08-08T16:55:53.446Z,28.50
2022-08-08T16:58:22.328Z,28.40
2022-08-08T17:00:54.603Z,28.40
2022-08-08T17:03:59.505Z,28.40
2022-08-08T17:06:36.062Z,28.20
2022-08-08T17:08:59.886Z,28.00
2022-08-08T17:11:39.475Z,28.00
2022-08-08T17:14:17.901Z,28.00
2022-08-08T17:16:57.311Z,27.90
2022-08-08T17:19:29.096Z,27.70
2022-08-08T17:22:01.445Z,27.80
2022-08-08T17:24:30.854Z,28.00
2022-08-08T17:26:59.752Z,28.00
2022-08-08T17:29:28.170Z,28.00
2022-08-08T17:32:01.675Z,27.80
2022-08-08T17:34:53.070Z,27.60
2022-08-08T17:37:19.181Z,27.60
2022-08-08T17:40:12.362Z,27.70
2022-08-08T17:42:35.364Z,27.60
2022-08-08T17:45:03.231Z,27.50
2022-08-08T17:47:37.581Z,27.40
2022-08-08T17:50:10.924Z,27.50
2022-08-08T17:52:43.078Z,27.30
2022-08-08T17:56:04.792Z,27.20
2022-08-08T17:58:01.817Z,27.20
2022-08-08T18:00:30.664Z,27.20
2022-08-08T18:03:08.237Z,27.10
2022-08-08T18:05:49.076Z,27.00
2022-08-08T18:08:25.144Z,27.10
2022-08-08T18:11:11.570Z,27.20
2022-08-08T18:13:42.670Z,27.00
2022-08-08T18:16:11.497Z,26.90
2022-08-08T18:18:45.613Z,27.00
2022-08-08T18:21:35.355Z,27.00
2022-08-08T18:24:18.981Z,26.90
2022-08-08T18:26:53.707Z,26.70
2022-08-08T18:29:29.727Z,26.70
2022-08-08T18:32:03.539Z,26.50
2022-08-08T18:34:33.047Z,26.20
2022-08-08T18:37:08.175Z,26.10
2022-08-08T18:39:37.041Z,26.10
2022-08-08T18:42:12.968Z,26.00
2022-08-08T18:44:42.323Z,25.90
2022-08-08T18:47:23.970Z,25.80
2022-08-08T18:49:58.838Z,25.80
2022-08-08T18:52:30.614Z,25.80
2022-08-08T18:54:59.288Z,25.70
2022-08-08T18:57:41.609Z,25.70
2022-08-08T19:00:16.776Z,25.50
2022-08-08T19:02:55.841Z,25.30
2022-08-08T19:05:31.914Z,25.30
2022-08-08T19:08:09.989Z,25.30
2022-08-08T19:10:41.309Z,25.30
2022-08-08T19:13:20.646Z,25.20
2022-08-08T19:15:49.225Z,25.30
2022-08-08T19:18:32.870Z,25.40
2022-08-08T19:21:29.895Z,25.30
2022-08-08T19:23:57.207Z,25.60
2022-08-08T19:26:30.789Z,25.50
2022-08-08T19:28:59.521Z,25.60
2022-08-08T19:31:31.915Z,25.40
2022-08-08T19:34:36.339Z,25.40
2022-08-08T19:36:53.707Z,25.40
2022-08-08T19:39:24.629Z,25.40
2022-08-08T19:41:52.437Z,25.40
2022-08-08T19:44:42.376Z,25.50
2022-08-08T19:47:08.010Z,25.40
2022-08-08T19:49:37.741Z,25.20
2022-08-08T19:52:07.053Z,25.10
2022-08-08T19:54:36.173Z,25.10
2022-08-08T19:57:07.683Z,25.20
2022-08-08T19:59:35.745Z,25.30
2022-08-08T20:02:04.519Z,25.10
2022-08-08T20:04:33.449Z,25.20
2022-08-08T20:07:05.381Z,25.00
2022-08-08T20:09:56.239Z,24.90
2022-08-08T20:12:34.427Z,24.80
2022-08-08T20:15:16.509Z,24.50
2022-08-08T20:17:46.537Z,24.20
2022-08-08T20:20:19.147Z,23.70
2022-08-08T20:22:54.070Z,23.40
2022-08-08T20:25:29.891Z,23.50
2022-08-08T20:28:05.716Z,23.60
2022-08-08T20:30:53.039Z,23.60
2022-08-08T20:35:59.583Z,23.60
2022-08-08T20:38:34.125Z,23.70
2022-08-08T20:41:05.591Z,23.60
2022-08-08T20:43:49.275Z,23.70
2022-08-08T20:46:20.312Z,23.80
2022-08-08T20:48:48.979Z,23.90
2022-08-08T20:51:18.198Z,23.30
2022-08-08T20:54:00.993Z,23.20
2022-08-08T20:56:35.364Z,23.30
2022-08-08T20:59:06.041Z,23.30
2022-08-08T21:02:05.606Z,23.20
2022-08-08T21:04:23.202Z,23.20
2022-08-08T21:06:53.247Z,23.10
2022-08-08T21:09:21.988Z,22.90
2022-08-08T21:11:53.594Z,22.80
2022-08-08T21:14:34.468Z,22.80
2022-08-08T21:17:03.085Z,22.50
2022-08-08T21:19:45.164Z,22.50
2022-08-08T21:22:14.658Z,22.60
2022-08-08T21:24:52.989Z,22.60
2022-08-08T21:27:38.814Z,22.70
2022-08-08T21:30:16.366Z,22.80
2022-08-08T21:32:51.061Z,22.90
2022-08-08T21:36:16.325Z,22.80
2022-08-08T21:38:16.179Z,22.80
2022-08-08T21:40:56.474Z,22.70
2022-08-08T21:43:33.395Z,22.60
2022-08-08T21:48:00.347Z,22.60
2022-08-08T21:48:52.042Z,22.40
2022-08-08T21:51:46.038Z,22.50
2022-08-08T21:54:32.648Z,22.40
2022-08-08T21:56:59.290Z,22.30
2022-08-08T22:00:01.663Z,22.30
2022-08-08T22:02:19.620Z,22.30
2022-08-08T22:04:52.363Z,22.10
2022-08-08T22:07:20.404Z,22.10
2022-08-08T22:09:54.961Z,22.00
2022-08-08T22:12:22.784Z,21.70
2022-08-08T22:14:54.451Z,21.70
2022-08-08T22:17:22.170Z,21.70
2022-08-08T22:20:11.984Z,21.70
2022-08-08T22:22:38.734Z,21.70
2022-08-08T22:25:12.440Z,21.80
2022-08-08T22:28:02.983Z,21.80
2022-08-08T22:30:34.070Z,21.80
2022-08-08T22:33:09.049Z,21.80
2022-08-08T22:36:04.199Z,21.90
2022-08-08T22:38:48.843Z,21.80
2022-08-08T22:41:21.119Z,21.90
2022-08-08T22:44:02.249Z,21.70
2022-08-08T22:46:33.222Z,21.70
2022-08-08T22:49:01.348Z,21.70
2022-08-08T22:51:34.966Z,21.50
2022-08-08T22:54:30.568Z,21.50
2022-08-08T22:56:58.042Z,21.50
2022-08-08T22:59:26.385Z,21.50
2022-08-08T23:02:12.721Z,21.60
2022-08-08T23:04:55.922Z,21.50
2022-08-08T23:07:24.435Z,21.30
2022-08-08T23:10:12.201Z,21.20
2022-08-08T23:12:47.842Z,21.20
2022-08-08T23:16:41.437Z,21.10
2022-08-08T23:18:12.054Z,21.00
2022-08-08T23:20:40.393Z,21.00
2022-08-08T23:23:08.331Z,21.00
2022-08-08T23:25:48.130Z,21.00
2022-08-08T23:28:18.872Z,20.90
2022-08-08T23:30:46.936Z,21.00
2022-08-08T23:33:35.707Z,20.90
2022-08-08T23:36:08.397Z,21.00
2022-08-08T23:38:44.351Z,21.00
2022-08-08T23:41:25.070Z,20.80
2022-08-08T23:43:56.921Z,20.90
2022-08-08T23:49:08.354Z,20.90
2022-08-08T23:49:18.951Z,21.00
2022-08-08T23:52:07.216Z,20.80
2022-08-08T23:54:42.399Z,20.70
2022-08-08T23:57:26.430Z,20.60
